createdAt,value
2023-02-19T06:19:12.080Z,1009.09
2023-02-19T06:29:12.125Z,1009.40
2023-02-19T06:39:11.973Z,1009.47
2023-02-19T06:49:11.977Z,1009.64
2023-02-19T06:59:11.996Z,1009.89
2023-02-19T07:09:12.150Z,1010.18
2023-02-19T07:19:12.133Z,1010.44
2023-02-19T07:29:11.976Z,1010.69
2023-02-19T07:39:12.130Z,1011.10
2023-02-19T07:49:12.079Z,1011.18
2023-02-19T07:59:11.996Z,1011.15
2023-02-19T08:09:12.172Z,1011.39
2023-02-19T08:19:12.016Z,1011.70
2023-02-19T08:29:12.072Z,1011.85
2023-02-19T08:39:12.173Z,1011.89
2023-02-19T08:49:12.304Z,1012.08
2023-02-19T08:59:12.384Z,1012.17
2023-02-19T09:09:12.363Z,1012.28
2023-02-19T09:19:12.417Z,1012.47
2023-02-19T09:29:12.441Z,1012.83
2023-02-19T09:39:12.318Z,1013.05
2023-02-19T09:49:12.324Z,1013.19
2023-02-19T09:59:12.245Z,1013.54
2023-02-19T10:09:12.345Z,1014.03
2023-02-19T10:19:12.390Z,1014.31
2023-02-19T10:29:12.415Z,1014.64
2023-02-19T10:39:12.373Z,1014.98
2023-02-19T10:49:12.600Z,1015.23
2023-02-19T10:59:12.492Z,1015.18
2023-02-19T11:09:12.580Z,1015.21
2023-02-19T11:19:12.861Z,1015.26
2023-02-19T11:29:12.554Z,1015.17
2023-02-19T11:39:12.494Z,1015.25
2023-02-19T11:49:12.829Z,1015.20
2023-02-19T11:59:12.508Z,1015.30
2023-02-19T12:09:12.454Z,1015.17
2023-02-19T12:19:12.650Z,1015.10
2023-02-19T12:29:12.701Z,1015.15
2023-02-19T12:39:12.660Z,1015.23
2023-02-19T12:49:12.813Z,1015.34
2023-02-19T12:59:12.687Z,1015.47
2023-02-19T13:09:12.654Z,1015.54
2023-02-19T13:19:12.536Z,1015.51
2023-02-19T13:29:12.599Z,1015.49
2023-02-19T13:39:12.640Z,1015.46
2023-02-19T13:49:12.637Z,1015.32
2023-02-19T13:59:12.651Z,1015.21
2023-02-19T14:09:12.664Z,1015.22
2023-02-19T14:19:12.826Z,1015.36
2023-02-19T14:29:12.789Z,1015.54
2023-02-19T14:39:12.732Z,1015.58
2023-02-19T14:49:12.808Z,1015.78
2023-02-19T14:59:12.737Z,1015.85
2023-02-19T15:09:12.738Z,1015.48
2023-02-19T15:19:13.752Z,1015.55
2023-02-19T15:29:12.810Z,1015.61
2023-02-19T15:39:12.803Z,1015.54
2023-02-19T15:49:12.699Z,1015.53
2023-02-19T15:59:12.820Z,1015.47
2023-02-19T16:09:12.846Z,1015.55
2023-02-19T16:19:12.846Z,1015.78
2023-02-19T16:29:12.832Z,1015.90
2023-02-19T16:39:12.792Z,1016.08
2023-02-19T16:49:12.879Z,1016.20
2023-02-19T16:59:12.853Z,1016.45
2023-02-19T17:09:12.790Z,1016.50
2023-02-19T17:19:12.781Z,1016.49
2023-02-19T17:29:12.851Z,1016.60
2023-02-19T17:39:12.895Z,1016.44
2023-02-19T17:49:12.915Z,1016.40
2023-02-19T17:59:12.994Z,1016.42
2023-02-19T18:09:12.898Z,1016.49
2023-02-19T18:19:12.968Z,1016.62
2023-02-19T18:29:12.823Z,1016.77
2023-02-19T18:39:12.799Z,1016.75
2023-02-19T18:49:13.011Z,1016.77
2023-02-19T18:59:13.048Z,1016.90
2023-02-19T19:09:13.175Z,1016.95
2023-02-19T19:19:13.397Z,1016.87
